createdAt,value
2018-07-24T00:01:25.266Z,99.90
2018-07-24T00:03:55.977Z,99.90
2018-07-24T00:06:28.089Z,99.90
2018-07-24T00:08:58.887Z,99.90
2018-07-24T00:11:29.607Z,99.90
2018-07-24T00:14:00.324Z,99.90
2018-07-24T00:16:31.625Z,99.90
2018-07-24T00:19:02.985Z,99.90
2018-07-24T00:21:33.918Z,99.90
2018-07-24T00:24:04.568Z,99.90
2018-07-24T00:26:35.228Z,99.90
2018-07-24T00:29:05.832Z,99.90
2018-07-24T00:31:36.595Z,99.90
2018-07-24T00:34:07.369Z,99.90
2018-07-24T00:36:38.855Z,99.90
2018-07-24T00:39:11.349Z,99.90
2018-07-24T00:41:42.088Z,99.90
2018-07-24T00:46:43.032Z,99.90
2018-07-24T00:49:13.714Z,99.90
2018-07-24T00:51:44.517Z,99.90
2018-07-24T00:54:15.282Z,99.90
2018-07-24T00:56:46.724Z,99.90
2018-07-24T00:59:20.392Z,99.90
2018-07-24T01:01:51.111Z,99.90
2018-07-24T01:04:22.594Z,99.90
2018-07-24T01:06:53.335Z,99.90
2018-07-24T01:09:24.059Z,99.90
2018-07-24T01:11:54.783Z,99.90
2018-07-24T01:14:26.181Z,99.90
2018-07-24T01:16:57.878Z,99.90
2018-07-24T01:19:28.739Z,99.90
2018-07-24T01:21:59.811Z,99.90
2018-07-24T01:24:30.759Z,99.90
2018-07-24T01:27:01.423Z,99.90
2018-07-24T01:29:31.911Z,99.90
2018-07-24T01:32:02.739Z,99.90
2018-07-24T01:34:34.193Z,99.90
2018-07-24T01:37:04.818Z,99.90
2018-07-24T01:42:05.306Z,99.90
2018-07-24T01:47:05.829Z,99.90
2018-07-24T01:49:36.367Z,99.90
2018-07-24T01:52:07.208Z,99.90
2018-07-24T01:54:38.560Z,99.90
2018-07-24T01:57:09.164Z,99.90
2018-07-24T01:59:39.741Z,99.90
2018-07-24T02:02:10.558Z,99.90
2018-07-24T02:04:41.135Z,99.90
2018-07-24T02:07:11.564Z,99.90
2018-07-24T02:09:42.065Z,99.90
2018-07-24T02:14:43.437Z,99.90
2018-07-24T02:17:13.931Z,99.90
2018-07-24T02:19:44.512Z,99.90
2018-07-24T02:22:14.977Z,99.90
2018-07-24T02:24:45.378Z,99.90
2018-07-24T02:27:15.944Z,99.90
2018-07-24T02:29:46.587Z,99.90
2018-07-24T02:32:17.349Z,99.90
2018-07-24T02:34:48.434Z,99.90
2018-07-24T02:37:19.036Z,99.90
2018-07-24T02:39:49.656Z,99.90
2018-07-24T02:42:20.087Z,99.90
2018-07-24T02:44:50.508Z,99.90
2018-07-24T02:47:21.066Z,99.90
2018-07-24T02:49:51.658Z,99.90
2018-07-24T02:52:22.396Z,99.90
2018-07-24T02:54:53.673Z,99.90
2018-07-24T02:57:24.168Z,99.90
2018-07-24T02:59:54.746Z,99.90
2018-07-24T03:02:25.233Z,99.90
2018-07-24T03:07:25.846Z,99.90
2018-07-24T03:09:56.364Z,99.90
2018-07-24T03:12:27.892Z,99.90
2018-07-24T03:14:59.027Z,99.90
2018-07-24T03:17:29.596Z,99.90
2018-07-24T03:20:00.034Z,99.90
2018-07-24T03:22:31.013Z,99.90
2018-07-24T03:25:02.425Z,99.90
2018-07-24T03:27:33.042Z,99.90
2018-07-24T03:30:03.666Z,99.90
2018-07-24T03:32:34.273Z,99.90
2018-07-24T03:35:04.947Z,99.90
2018-07-24T03:37:35.434Z,99.90
2018-07-24T03:40:06.158Z,99.90
2018-07-24T03:42:36.605Z,99.90
2018-07-24T03:45:07.654Z,99.90
2018-07-24T03:47:38.119Z,99.90
2018-07-24T03:50:08.552Z,99.90
2018-07-24T03:52:39.145Z,99.90
2018-07-24T03:55:09.949Z,99.90
2018-07-24T03:57:41.465Z,99.90
2018-07-24T04:00:12.569Z,99.90
2018-07-24T04:02:43.268Z,99.90
2018-07-24T04:05:13.920Z,99.90
2018-07-24T04:07:44.441Z,99.90
2018-07-24T04:10:14.949Z,99.90
2018-07-24T04:12:45.489Z,99.90
2018-07-24T04:15:16.581Z,99.90
2018-07-24T04:17:48.214Z,99.90
2018-07-24T04:20:18.842Z,99.90
2018-07-24T04:22:49.434Z,99.90
2018-07-24T04:25:20.215Z,99.90
2018-07-24T04:27:50.745Z,99.90
2018-07-24T04:30:21.270Z,99.90
2018-07-24T04:32:51.882Z,99.90
2018-07-24T04:35:23.229Z,99.90
2018-07-24T04:37:54.734Z,99.90
2018-07-24T04:40:25.294Z,99.90
2018-07-24T04:42:56.006Z,99.90
2018-07-24T04:45:26.590Z,99.90
2018-07-24T04:47:57.272Z,99.90
2018-07-24T04:50:27.796Z,99.90
2018-07-24T04:52:58.504Z,99.90
2018-07-24T04:55:29.909Z,99.90
2018-07-24T04:58:00.585Z,99.90
2018-07-24T05:00:31.193Z,99.90
2018-07-24T05:03:02.789Z,99.90
2018-07-24T05:05:34.216Z,99.90
2018-07-24T05:08:05.601Z,99.90
2018-07-24T05:10:36.257Z,99.90
2018-07-24T05:13:06.961Z,99.90
2018-07-24T05:15:38.765Z,99.90
2018-07-24T05:18:09.599Z,99.90
2018-07-24T05:20:40.365Z,99.90
2018-07-24T05:25:41.090Z,99.90
2018-07-24T05:28:11.771Z,99.90
2018-07-24T05:30:42.536Z,99.90
2018-07-24T05:33:13.601Z,99.90
2018-07-24T05:35:45.357Z,99.90
2018-07-24T05:38:16.721Z,99.90
2018-07-24T05:40:47.337Z,99.90
2018-07-24T05:43:18.440Z,99.90
2018-07-24T05:45:49.346Z,99.90
2018-07-24T05:48:20.725Z,99.90
2018-07-24T05:50:51.462Z,99.90
2018-07-24T05:53:22.493Z,99.90
2018-07-24T05:55:54.642Z,99.90
2018-07-24T05:58:26.770Z,99.90
2018-07-24T06:00:58.157Z,99.90
2018-07-24T06:05:59.307Z,99.90
2018-07-24T06:08:30.035Z,99.90
2018-07-24T06:11:00.776Z,99.90
2018-07-24T06:13:31.447Z,99.90
2018-07-24T06:16:02.308Z,99.90
2018-07-24T06:18:33.089Z,99.90
2018-07-24T06:21:03.932Z,99.90
2018-07-24T06:23:34.853Z,99.90
2018-07-24T06:26:07.244Z,99.90
2018-07-24T06:28:37.928Z,99.90
2018-07-24T06:31:08.512Z,99.90
2018-07-24T06:33:39.107Z,99.90
2018-07-24T06:36:10.353Z,99.90
2018-07-24T06:38:41.688Z,99.90
2018-07-24T06:41:12.404Z,99.80
2018-07-24T06:43:42.987Z,99.90
2018-07-24T06:46:13.600Z,98.10
2018-07-24T06:48:44.247Z,97.40
2018-07-24T06:51:15.003Z,97.50
2018-07-24T06:53:46.353Z,96.80
2018-07-24T06:56:18.194Z,95.90
2018-07-24T06:58:50.359Z,95.40
2018-07-24T07:01:21.164Z,94.60
2018-07-24T07:03:52.363Z,94.30
2018-07-24T07:06:23.038Z,93.10
2018-07-24T07:08:58.363Z,92.90
2018-07-24T07:11:30.752Z,91.70
2018-07-24T07:14:02.302Z,91.40
2018-07-24T07:16:33.081Z,91.50
2018-07-24T07:19:04.365Z,91.60
2018-07-24T07:21:36.028Z,89.50
2018-07-24T07:24:06.580Z,88.20
2018-07-24T07:26:37.392Z,84.20
2018-07-24T07:29:08.922Z,83.10
2018-07-24T07:31:39.738Z,82.40
2018-07-24T07:34:10.938Z,81.00
2018-07-24T07:36:42.496Z,81.50
2018-07-24T07:39:13.415Z,80.10
2018-07-24T07:41:44.464Z,77.90
2018-07-24T07:46:45.385Z,75.90
2018-07-24T07:49:16.971Z,72.90
2018-07-24T07:51:48.168Z,73.70
2018-07-24T07:54:19.091Z,74.20
2018-07-24T07:56:49.720Z,71.10
2018-07-24T07:59:20.371Z,69.50
2018-07-24T08:01:51.454Z,69.50
2018-07-24T08:04:23.524Z,68.80
2018-07-24T08:06:56.225Z,67.80
2018-07-24T08:09:28.729Z,67.40
2018-07-24T08:12:00.179Z,67.40
2018-07-24T08:14:30.834Z,65.30
2018-07-24T08:17:02.214Z,66.30
2018-07-24T08:19:35.366Z,64.70
2018-07-24T08:22:06.402Z,63.50
2018-07-24T08:24:38.205Z,63.90
2018-07-24T08:27:10.448Z,61.50
2018-07-24T08:29:41.466Z,60.90
2018-07-24T08:34:42.673Z,60.50
2018-07-24T08:37:13.741Z,60.70
2018-07-24T08:39:44.521Z,59.40
2018-07-24T08:42:15.606Z,60.10
2018-07-24T08:44:49.324Z,60.70
2018-07-24T08:47:22.422Z,58.20
2018-07-24T08:49:53.556Z,56.60
2018-07-24T08:52:24.909Z,55.50
2018-07-24T08:54:56.003Z,55.40
2018-07-24T08:57:26.984Z,55.70
2018-07-24T08:59:58.531Z,55.40
2018-07-24T09:02:31.557Z,55.20
2018-07-24T09:05:02.334Z,54.30
2018-07-24T09:07:33.258Z,53.20
2018-07-24T09:10:04.731Z,52.90
2018-07-24T09:12:35.984Z,51.90
2018-07-24T09:15:08.647Z,52.10
2018-07-24T09:17:41.529Z,51.30
2018-07-24T09:22:45.499Z,51.40
2018-07-24T09:25:16.202Z,51.50
2018-07-24T09:27:47.042Z,50.90
2018-07-24T09:30:17.635Z,50.80
2018-07-24T09:32:48.363Z,50.20
2018-07-24T09:35:19.148Z,49.00
2018-07-24T09:37:50.789Z,48.30
2018-07-24T09:40:25.022Z,48.20
2018-07-24T09:42:56.009Z,49.30
2018-07-24T09:45:26.757Z,49.30
2018-07-24T09:47:57.757Z,49.00
2018-07-24T09:50:28.673Z,48.50
2018-07-24T09:52:59.293Z,47.10
2018-07-24T09:55:30.300Z,45.90
2018-07-24T09:58:02.224Z,46.50
2018-07-24T10:00:38.029Z,46.10
2018-07-24T10:03:08.915Z,46.90
2018-07-24T10:05:39.734Z,46.80
2018-07-24T10:08:10.419Z,48.00
2018-07-24T10:10:41.327Z,47.10
2018-07-24T10:13:13.193Z,48.70
2018-07-24T10:15:43.979Z,47.60
2018-07-24T10:18:14.537Z,47.00
2018-07-24T10:20:45.060Z,46.40
2018-07-24T10:23:15.802Z,45.90
2018-07-24T10:25:46.570Z,46.10
2018-07-24T10:28:17.375Z,47.30
2018-07-24T10:30:48.229Z,46.80
2018-07-24T10:33:20.693Z,46.40
2018-07-24T10:35:52.818Z,47.10
2018-07-24T10:38:23.889Z,45.90
2018-07-24T10:40:54.576Z,46.40
2018-07-24T10:43:25.368Z,47.20
2018-07-24T10:48:26.285Z,48.10
2018-07-24T10:50:58.934Z,48.70
2018-07-24T10:53:30.027Z,48.30
2018-07-24T10:58:31.001Z,47.50
2018-07-24T11:01:02.237Z,46.90
2018-07-24T11:03:32.819Z,47.50
2018-07-24T11:06:03.566Z,47.70
2018-07-24T11:08:35.067Z,47.80
2018-07-24T11:11:07.708Z,46.20
2018-07-24T11:13:39.516Z,45.30
2018-07-24T11:16:10.281Z,42.90
2018-07-24T11:21:11.266Z,43.10
2018-07-24T11:23:41.795Z,45.40
2018-07-24T11:26:12.932Z,45.40
2018-07-24T11:28:45.029Z,44.30
2018-07-24T11:31:16.048Z,44.70
2018-07-24T11:33:46.822Z,44.20
2018-07-24T11:36:17.554Z,43.70
2018-07-24T11:38:48.379Z,43.40
2018-07-24T11:41:19.018Z,43.20
2018-07-24T11:43:49.835Z,42.90
2018-07-24T11:46:20.928Z,43.00
2018-07-24T11:48:52.496Z,44.40
2018-07-24T11:51:23.141Z,42.80
2018-07-24T11:53:54.804Z,43.00
2018-07-24T11:56:25.934Z,42.60
2018-07-24T11:58:57.273Z,43.00
2018-07-24T12:03:58.707Z,42.60
2018-07-24T12:06:31.348Z,41.20
2018-07-24T12:09:04.136Z,42.50
2018-07-24T12:11:35.049Z,41.30
2018-07-24T12:14:05.844Z,41.90
2018-07-24T12:16:37.437Z,41.60
2018-07-24T12:19:08.614Z,42.20
2018-07-24T12:21:41.802Z,41.10
2018-07-24T12:24:15.801Z,39.70
2018-07-24T12:26:46.635Z,40.20
2018-07-24T12:29:17.881Z,40.80
2018-07-24T12:31:49.435Z,41.60
2018-07-24T12:34:20.533Z,41.30
2018-07-24T12:36:51.537Z,41.40
2018-07-24T12:39:23.587Z,40.60
2018-07-24T12:41:56.339Z,40.80
2018-07-24T12:44:30.021Z,40.00
2018-07-24T12:47:01.370Z,41.70
2018-07-24T12:49:32.562Z,39.60
2018-07-24T12:52:03.463Z,40.20
2018-07-24T12:57:05.945Z,39.50
2018-07-24T12:59:37.782Z,40.10
2018-07-24T13:02:08.788Z,39.10
2018-07-24T13:04:40.535Z,40.10
2018-07-24T13:07:12.062Z,40.40
2018-07-24T13:09:42.904Z,39.60
2018-07-24T13:12:14.171Z,38.90
2018-07-24T13:14:45.608Z,40.00
2018-07-24T13:17:17.910Z,38.50
2018-07-24T13:19:48.894Z,38.10
2018-07-24T13:22:19.580Z,39.60
2018-07-24T13:24:50.431Z,39.70
2018-07-24T13:27:21.160Z,38.40
2018-07-24T13:29:51.877Z,37.40
2018-07-24T13:32:22.875Z,38.60
2018-07-24T13:34:54.402Z,37.90
2018-07-24T13:37:25.508Z,37.60
2018-07-24T13:39:57.336Z,38.00
2018-07-24T13:42:30.735Z,37.90
2018-07-24T13:45:02.196Z,37.90
2018-07-24T13:47:33.162Z,37.90
2018-07-24T13:50:04.679Z,37.60
2018-07-24T13:52:36.292Z,36.30
2018-07-24T13:55:07.376Z,36.90
2018-07-24T13:57:38.156Z,36.60
2018-07-24T14:00:09.609Z,36.80
2018-07-24T14:02:41.493Z,36.30
2018-07-24T14:05:12.252Z,35.50
2018-07-24T14:07:43.697Z,35.60
2018-07-24T14:10:15.366Z,35.50
2018-07-24T14:12:48.833Z,35.40
2018-07-24T14:15:21.099Z,34.70
2018-07-24T14:17:51.762Z,35.20
2018-07-24T14:20:24.138Z,35.50
2018-07-24T14:23:02.026Z,35.00
2018-07-24T14:28:04.427Z,34.70
2018-07-24T14:33:15.479Z,36.10
2018-07-24T14:35:46.863Z,35.80
2018-07-24T14:38:20.010Z,35.40
2018-07-24T14:40:50.535Z,34.00
2018-07-24T14:43:23.937Z,35.70
2018-07-24T14:45:54.599Z,35.80
2018-07-24T14:48:26.227Z,35.10
2018-07-24T14:50:56.905Z,35.90
2018-07-24T14:53:28.018Z,36.00
2018-07-24T14:58:30.305Z,36.00
2018-07-24T15:01:01.775Z,33.70
2018-07-24T15:03:32.530Z,34.70
2018-07-24T15:06:03.112Z,35.00
2018-07-24T15:08:34.473Z,34.60
2018-07-24T15:11:05.080Z,36.10
2018-07-24T15:13:36.689Z,35.80
2018-07-24T15:16:08.691Z,36.30
2018-07-24T15:18:39.386Z,34.50
2018-07-24T15:21:10.210Z,34.80
2018-07-24T15:23:40.842Z,37.10
2018-07-24T15:26:11.582Z,36.30
2018-07-24T15:28:42.178Z,35.60
2018-07-24T15:31:13.412Z,36.10
2018-07-24T15:36:15.903Z,37.20
2018-07-24T15:38:46.720Z,37.90
2018-07-24T15:41:18.532Z,37.40
2018-07-24T15:43:50.307Z,37.70
2018-07-24T15:46:21.142Z,37.70
2018-07-24T15:48:52.028Z,39.40
2018-07-24T15:51:24.482Z,37.80
2018-07-24T15:53:56.249Z,37.60
2018-07-24T15:56:28.317Z,37.00
2018-07-24T15:59:01.359Z,37.60
2018-07-24T16:01:32.736Z,38.60
2018-07-24T16:04:05.441Z,37.50
2018-07-24T16:06:39.328Z,38.40
2018-07-24T16:09:13.026Z,38.30
2018-07-24T16:14:14.909Z,38.60
2018-07-24T16:16:46.411Z,39.10
2018-07-24T16:19:18.348Z,40.60
2018-07-24T16:21:51.306Z,40.90
2018-07-24T16:24:24.133Z,40.50
2018-07-24T16:26:57.363Z,40.20
2018-07-24T16:29:29.228Z,40.70
2018-07-24T16:32:03.147Z,40.50
2018-07-24T16:34:34.891Z,40.40
2018-07-24T16:39:39.443Z,41.70
2018-07-24T16:42:10.906Z,41.00
2018-07-24T16:44:44.909Z,41.60
2018-07-24T16:47:16.494Z,41.00
2018-07-24T16:49:48.430Z,41.80
2018-07-24T16:52:26.295Z,42.20
2018-07-24T16:54:59.930Z,42.20
2018-07-24T16:57:32.244Z,42.10
2018-07-24T17:00:04.620Z,43.00
2018-07-24T17:02:36.600Z,43.00
2018-07-24T17:07:42.211Z,44.10
2018-07-24T17:10:16.663Z,44.00
2018-07-24T17:12:50.500Z,43.80
2018-07-24T17:15:23.425Z,44.50
2018-07-24T17:17:56.719Z,44.00
2018-07-24T17:20:29.249Z,44.80
2018-07-24T17:23:01.163Z,44.80
2018-07-24T17:25:33.579Z,45.80
2018-07-24T17:28:05.788Z,45.10
2018-07-24T17:30:38.692Z,45.10
2018-07-24T17:33:11.814Z,45.60
2018-07-24T17:35:46.740Z,45.70
2018-07-24T17:38:18.962Z,45.50
2018-07-24T17:43:28.793Z,46.00
2018-07-24T17:47:43.639Z,46.20
2018-07-24T17:50:17.248Z,46.20
2018-07-24T17:52:50.060Z,46.40
2018-07-24T17:55:22.869Z,46.90
2018-07-24T17:57:54.201Z,46.60
2018-07-24T18:02:56.367Z,47.10
2018-07-24T18:05:36.941Z,46.80
2018-07-24T18:08:08.832Z,47.10
2018-07-24T18:12:55.833Z,47.30
2018-07-24T18:15:28.628Z,47.10
2018-07-24T18:18:00.378Z,47.30
2018-07-24T18:20:32.421Z,46.90
2018-07-24T18:23:04.314Z,47.00
2018-07-24T18:25:36.751Z,47.30
2018-07-24T18:28:15.153Z,47.30
2018-07-24T18:30:47.689Z,47.50
2018-07-24T18:33:18.688Z,47.50
2018-07-24T18:35:49.794Z,48.00
2018-07-24T18:38:21.140Z,48.60
2018-07-24T18:40:53.904Z,48.20
2018-07-24T18:43:26.903Z,47.40
2018-07-24T18:45:57.854Z,48.40
2018-07-24T18:48:29.193Z,50.70
2018-07-24T18:50:59.951Z,52.50
2018-07-24T18:53:31.100Z,53.50
2018-07-24T18:56:02.384Z,54.10
2018-07-24T18:58:34.586Z,55.20
2018-07-24T19:01:09.967Z,56.80
2018-07-24T19:03:41.370Z,57.20
2018-07-24T19:06:12.779Z,58.50
2018-07-24T19:08:46.392Z,58.80
2018-07-24T19:11:19.126Z,59.30
2018-07-24T19:13:55.330Z,61.00
2018-07-24T19:16:32.090Z,61.80
2018-07-24T19:19:07.030Z,62.20
2018-07-24T19:21:40.166Z,61.90
2018-07-24T19:24:13.305Z,62.50
2018-07-24T19:26:46.358Z,62.40
2018-07-24T19:29:19.029Z,64.50
2018-07-24T19:31:52.232Z,63.50
2018-07-24T19:34:24.711Z,63.20
2018-07-24T19:36:57.466Z,62.20
2018-07-24T19:39:30.580Z,62.60
2018-07-24T19:42:02.324Z,63.50
2018-07-24T19:44:33.956Z,64.10
2018-07-24T19:47:05.902Z,63.80
2018-07-24T19:49:39.159Z,64.20
2018-07-24T19:52:14.629Z,64.40
2018-07-24T19:54:48.582Z,64.30
2018-07-24T19:57:20.791Z,63.80
2018-07-24T19:59:53.914Z,63.80
2018-07-24T20:02:27.029Z,63.80
2018-07-24T20:04:59.608Z,65.20
2018-07-24T20:07:32.958Z,65.70
2018-07-24T20:10:05.147Z,66.30
2018-07-24T20:12:38.825Z,66.80
2018-07-24T20:15:15.759Z,67.00
2018-07-24T20:17:50.561Z,69.40
2018-07-24T20:20:24.682Z,70.70
2018-07-24T20:22:57.228Z,73.00
2018-07-24T20:25:28.897Z,74.90
2018-07-24T20:28:02.957Z,75.10
2018-07-24T20:30:35.361Z,75.60
2018-07-24T20:33:08.582Z,76.50
2018-07-24T20:35:43.115Z,76.90
2018-07-24T20:38:16.008Z,77.50
2018-07-24T20:40:48.880Z,77.80
2018-07-24T20:43:20.503Z,78.20
2018-07-24T20:45:53.171Z,77.20
2018-07-24T20:48:25.820Z,77.10
2018-07-24T20:51:00.974Z,77.50
2018-07-24T20:53:35.021Z,79.20
2018-07-24T20:56:07.049Z,79.60
2018-07-24T20:58:39.340Z,81.00
2018-07-24T21:01:12.061Z,82.40
2018-07-24T21:03:43.008Z,77.60
2018-07-24T21:06:13.933Z,78.00
2018-07-24T21:08:44.911Z,76.90
2018-07-24T21:11:15.807Z,77.60
2018-07-24T21:13:46.762Z,77.50
2018-07-24T21:18:48.683Z,81.80
2018-07-24T21:21:20.338Z,79.40
2018-07-24T21:23:50.987Z,78.40
2018-07-24T21:26:22.020Z,81.10
2018-07-24T21:28:52.809Z,82.30
2018-07-24T21:31:23.579Z,85.80
2018-07-24T21:33:54.261Z,87.20
2018-07-24T21:36:28.854Z,86.50
2018-07-24T21:41:31.997Z,85.50
2018-07-24T21:44:02.798Z,88.40
2018-07-24T21:46:33.709Z,90.40
2018-07-24T21:49:04.545Z,91.60
2018-07-24T21:51:35.782Z,92.70
2018-07-24T21:54:07.280Z,93.00
2018-07-24T21:56:38.456Z,93.70
2018-07-24T21:59:09.284Z,93.60
2018-07-24T22:01:41.013Z,93.70
2018-07-24T22:04:11.707Z,93.50
2018-07-24T22:06:42.680Z,93.50
2018-07-24T22:09:13.800Z,93.70
2018-07-24T22:11:45.102Z,94.80
2018-07-24T22:14:16.561Z,95.20
2018-07-24T22:16:48.003Z,95.50
2018-07-24T22:19:19.715Z,95.90
2018-07-24T22:21:52.716Z,96.10
2018-07-24T22:24:23.379Z,96.20
2018-07-24T22:26:54.209Z,96.30
2018-07-24T22:29:25.119Z,96.30
2018-07-24T22:31:56.464Z,96.80
2018-07-24T22:34:29.663Z,97.00
2018-07-24T22:37:03.174Z,97.60
2018-07-24T22:39:34.317Z,98.40
2018-07-24T22:42:05.334Z,99.30
2018-07-24T22:44:35.867Z,99.60
2018-07-24T22:47:06.610Z,99.90
2018-07-24T22:49:38.859Z,99.90
2018-07-24T22:52:09.784Z,99.90
2018-07-24T22:54:40.514Z,99.90
2018-07-24T22:57:11.285Z,99.90
2018-07-24T23:02:12.425Z,99.90
2018-07-24T23:04:42.844Z,99.90
2018-07-24T23:07:13.846Z,99.90
2018-07-24T23:09:44.513Z,99.90
2018-07-24T23:12:15.541Z,99.90
2018-07-24T23:14:46.422Z,99.90
2018-07-24T23:17:16.862Z,99.90
2018-07-24T23:19:47.631Z,99.90
2018-07-24T23:22:19.947Z,99.90
2018-07-24T23:24:50.350Z,99.90
2018-07-24T23:27:20.824Z,99.90
2018-07-24T23:29:51.235Z,99.90
2018-07-24T23:32:22.082Z,99.90
2018-07-24T23:34:52.383Z,99.90
2018-07-24T23:37:22.731Z,99.90
2018-07-24T23:39:53.692Z,99.90
2018-07-24T23:44:54.769Z,99.90
2018-07-24T23:47:26.241Z,99.90
2018-07-24T23:49:56.717Z,99.90
2018-07-24T23:52:27.154Z,99.90
2018-07-24T23:54:57.544Z,99.90
2018-07-24T23:57:27.877Z,99.90
2018-07-24T23:59:58.740Z,99.90
